createdAt,value
2022-11-26T00:00:00.586Z,95.22
2022-11-26T00:03:07.609Z,85.25
2022-11-26T00:05:41.634Z,78.55
2022-11-26T00:08:42.490Z,90.00
2022-11-26T00:14:03.498Z,76.65
2022-11-26T00:16:37.628Z,103.03
2022-11-26T00:19:24.496Z,114.22
2022-11-26T00:22:05.488Z,95.63
2022-11-26T00:24:52.545Z,90.72
2022-11-26T00:27:26.623Z,96.80
2022-11-26T00:30:21.543Z,98.68
2022-11-26T00:32:55.623Z,97.45
2022-11-26T00:35:42.526Z,110.35
2022-11-26T00:38:30.561Z,108.32
2022-11-26T00:41:41.522Z,100.35
2022-11-26T00:44:37.702Z,101.38
2022-11-26T00:47:24.536Z,104.97
2022-11-26T00:49:58.580Z,100.43
2022-11-26T00:52:45.512Z,90.40
2022-11-26T00:55:38.487Z,105.10
2022-11-26T00:58:36.518Z,95.60
2022-11-26T01:01:17.540Z,109.38
2022-11-26T01:04:05.517Z,108.00
2022-11-26T01:06:52.555Z,108.65
2022-11-26T01:09:40.501Z,101.50
2022-11-26T01:12:28.511Z,99.07
2022-11-26T01:15:08.502Z,101.63
2022-11-26T01:17:49.589Z,98.35
2022-11-26T01:20:37.500Z,98.68
2022-11-26T01:23:19.632Z,103.68
2022-11-26T01:26:02.451Z,102.68
2022-11-26T01:28:53.519Z,114.95
2022-11-26T01:31:35.576Z,128.52
2022-11-26T01:34:23.504Z,117.07
2022-11-26T01:36:57.485Z,111.03
2022-11-26T01:39:45.526Z,134.18
2022-11-26T01:42:40.561Z,122.93
2022-11-26T01:45:29.555Z,125.38
2022-11-26T01:48:03.859Z,130.25
2022-11-26T01:51:01.508Z,107.03
2022-11-26T01:53:53.061Z,111.28
2022-11-26T01:56:49.544Z,126.18
2022-11-26T01:59:47.673Z,117.45
2022-11-26T02:02:35.529Z,99.25
2022-11-26T02:05:13.609Z,122.32
2022-11-26T02:08:01.536Z,123.75
2022-11-26T02:10:35.590Z,122.35
2022-11-26T02:13:22.542Z,109.75
2022-11-26T02:16:08.582Z,113.28
2022-11-26T02:19:31.547Z,122.70
2022-11-26T02:22:37.541Z,118.53
2022-11-26T02:25:17.621Z,124.55
2022-11-26T02:28:04.511Z,115.57
2022-11-26T02:30:57.546Z,104.05
2022-11-26T02:34:01.536Z,119.53
2022-11-26T02:36:45.622Z,86.78
2022-11-26T02:39:27.533Z,100.35
2022-11-26T02:42:15.543Z,106.68
2022-11-26T02:44:56.510Z,102.22
2022-11-26T02:47:39.602Z,118.22
2022-11-26T02:50:26.556Z,104.32
2022-11-26T02:53:07.640Z,109.18
2022-11-26T02:55:53.517Z,115.50
2022-11-26T02:58:34.581Z,123.70
2022-11-26T03:01:35.661Z,113.45
2022-11-26T03:04:33.589Z,106.90
2022-11-26T03:07:15.586Z,129.93
2022-11-26T03:10:00.602Z,109.50
2022-11-26T03:12:40.532Z,122.57
2022-11-26T03:15:21.627Z,107.22
2022-11-26T03:18:02.532Z,110.82
2022-11-26T03:20:43.596Z,114.93
2022-11-26T03:23:23.528Z,91.75
2022-11-26T03:26:04.600Z,109.35
2022-11-26T03:28:44.522Z,109.28
2022-11-26T03:31:32.539Z,100.60
2022-11-26T03:34:19.576Z,113.28
2022-11-26T03:36:53.579Z,123.55
2022-11-26T03:39:40.602Z,103.28
2022-11-26T03:42:21.529Z,77.45
2022-11-26T03:45:09.554Z,118.22
2022-11-26T03:47:43.593Z,101.53
2022-11-26T03:50:31.528Z,98.28
2022-11-26T03:53:05.614Z,111.40
2022-11-26T03:55:52.546Z,90.25
2022-11-26T03:58:33.543Z,101.15
2022-11-26T04:01:21.655Z,93.82
2022-11-26T04:04:02.519Z,95.93
2022-11-26T04:06:56.537Z,91.40
2022-11-26T04:09:43.529Z,99.47
2022-11-26T04:12:24.524Z,98.30
2022-11-26T04:15:19.505Z,95.38
2022-11-26T04:18:06.557Z,86.25
2022-11-26T04:20:51.568Z,109.20
2022-11-26T04:23:46.513Z,82.43
2022-11-26T04:26:33.530Z,83.03
2022-11-26T04:29:14.558Z,93.32
2022-11-26T04:32:01.614Z,84.32
2022-11-26T04:34:49.537Z,87.13
2022-11-26T04:37:23.525Z,86.75
2022-11-26T04:40:11.526Z,84.13
2022-11-26T04:42:51.506Z,86.30
2022-11-26T04:45:39.597Z,83.85
2022-11-26T04:48:13.516Z,84.35
2022-11-26T04:51:02.576Z,79.03
2022-11-26T04:53:43.604Z,83.75
2022-11-26T04:56:24.626Z,82.03
2022-11-26T04:59:04.549Z,78.95
2022-11-26T05:01:45.687Z,76.18
2022-11-26T05:04:26.561Z,78.63
2022-11-26T05:07:14.604Z,78.22
2022-11-26T05:09:55.565Z,84.18
2022-11-26T05:12:43.580Z,76.15
2022-11-26T05:15:24.576Z,80.15
2022-11-26T05:18:05.634Z,86.05
2022-11-26T05:20:46.526Z,88.32
2022-11-26T05:23:34.552Z,87.57
2022-11-26T05:26:08.491Z,74.38
2022-11-26T05:28:56.522Z,83.47
2022-11-26T05:31:31.133Z,74.00
2022-11-26T05:34:18.538Z,78.22
2022-11-26T05:36:58.581Z,82.05
2022-11-26T05:39:39.587Z,68.47
2022-11-26T05:42:21.548Z,73.93
2022-11-26T05:45:09.549Z,79.18
2022-11-26T05:47:50.528Z,79.05
2022-11-26T05:50:31.611Z,70.22
2022-11-26T05:53:12.535Z,84.65
2022-11-26T05:56:00.553Z,82.35
2022-11-26T05:58:40.540Z,76.80
2022-11-26T06:01:21.597Z,85.68
2022-11-26T06:04:01.544Z,85.70
2022-11-26T06:06:49.563Z,86.22
2022-11-26T06:09:43.533Z,78.13
2022-11-26T06:12:31.539Z,89.55
2022-11-26T06:15:05.620Z,86.20
2022-11-26T06:17:52.615Z,83.03
2022-11-26T06:20:33.536Z,93.30
2022-11-26T06:23:21.553Z,84.30
2022-11-26T06:25:55.674Z,113.35
2022-11-26T06:28:43.578Z,90.32
2022-11-26T06:31:24.591Z,77.68
2022-11-26T06:34:11.624Z,85.65
2022-11-26T06:36:52.538Z,77.53
2022-11-26T06:39:32.616Z,77.80
2022-11-26T06:42:13.546Z,72.07
2022-11-26T06:44:59.493Z,67.47
2022-11-26T06:47:40.623Z,79.53
2022-11-26T06:50:21.554Z,78.18
2022-11-26T06:53:06.537Z,68.20
2022-11-26T06:56:00.544Z,59.08
2022-11-26T06:58:48.553Z,79.30
2022-11-26T07:01:33.666Z,64.13
2022-11-26T07:04:27.534Z,67.47
2022-11-26T07:07:15.600Z,58.72
2022-11-26T07:09:49.668Z,54.60
2022-11-26T07:12:36.546Z,63.42
2022-11-26T07:15:10.649Z,67.07
2022-11-26T07:17:57.556Z,66.88
2022-11-26T07:20:31.670Z,63.67
2022-11-26T07:23:18.539Z,65.93
2022-11-26T07:25:52.647Z,68.22
2022-11-26T07:28:40.552Z,59.25
2022-11-26T07:31:19.622Z,52.45
2022-11-26T07:34:06.637Z,61.42
2022-11-26T07:36:43.383Z,58.90
2022-11-26T07:39:30.554Z,53.15
2022-11-26T07:42:04.614Z,60.92
2022-11-26T07:44:51.543Z,56.45
2022-11-26T07:47:32.587Z,61.55
2022-11-26T07:50:19.545Z,55.33
2022-11-26T07:53:00.554Z,59.35
2022-11-26T07:55:48.554Z,71.97
2022-11-26T07:58:22.632Z,81.68
2022-11-26T08:01:15.658Z,73.10
2022-11-26T08:03:51.683Z,73.75
2022-11-26T08:06:39.559Z,89.40
2022-11-26T08:09:13.650Z,88.82
2022-11-26T08:12:01.541Z,86.90
2022-11-26T08:14:35.935Z,102.25
2022-11-26T08:17:22.552Z,87.32
2022-11-26T08:19:56.645Z,76.93
2022-11-26T08:22:43.546Z,60.53
2022-11-26T08:25:24.642Z,68.63
2022-11-26T08:28:18.553Z,62.63
2022-11-26T08:31:13.591Z,74.95
2022-11-26T08:33:47.709Z,56.45
2022-11-26T08:36:35.589Z,55.88
2022-11-26T08:39:09.623Z,58.70
2022-11-26T08:41:56.616Z,66.55
2022-11-26T08:44:30.604Z,59.33
2022-11-26T08:47:17.579Z,52.65
2022-11-26T08:49:58.567Z,66.30
2022-11-26T08:52:52.550Z,61.03
2022-11-26T08:55:59.340Z,66.38
2022-11-26T08:58:34.689Z,57.58
2022-11-26T09:01:26.679Z,63.25
2022-11-26T09:04:09.638Z,63.65
2022-11-26T09:07:03.551Z,61.88
2022-11-26T09:09:58.156Z,61.78
2022-11-26T09:12:44.573Z,73.03
2022-11-26T09:15:25.577Z,53.80
2022-11-26T09:18:19.546Z,53.08
2022-11-26T09:21:09.554Z,55.50
2022-11-26T09:23:43.657Z,50.92
2022-11-26T09:26:31.556Z,45.50
2022-11-26T09:29:12.568Z,53.17
2022-11-26T09:32:22.636Z,53.90
2022-11-26T09:35:01.583Z,62.00
2022-11-26T09:37:45.097Z,56.03
2022-11-26T09:40:39.559Z,43.90
2022-11-26T09:43:28.577Z,50.55
2022-11-26T09:46:17.730Z,47.85
2022-11-26T09:49:02.626Z,41.75
2022-11-26T09:51:51.573Z,44.10
2022-11-26T09:54:34.599Z,44.03
2022-11-26T09:57:46.635Z,41.30
2022-11-26T10:00:42.648Z,51.58
2022-11-26T10:03:27.646Z,43.13
2022-11-26T10:06:10.562Z,47.38
2022-11-26T10:09:13.593Z,40.13
2022-11-26T10:12:26.060Z,45.08
2022-11-26T10:15:39.555Z,36.95
2022-11-26T10:18:22.738Z,44.53
2022-11-26T10:21:09.579Z,43.63
2022-11-26T10:24:05.706Z,45.33
2022-11-26T10:26:46.568Z,44.78
2022-11-26T10:29:31.640Z,43.60
2022-11-26T10:32:22.563Z,47.65
2022-11-26T10:35:04.615Z,42.30
2022-11-26T10:37:44.669Z,44.35
2022-11-26T10:40:32.639Z,41.08
2022-11-26T10:43:14.583Z,41.45
2022-11-26T10:45:56.787Z,34.65
2022-11-26T10:48:37.625Z,39.88
2022-11-26T10:51:26.692Z,42.88
2022-11-26T10:54:11.560Z,43.20
2022-11-26T10:56:53.734Z,40.97
2022-11-26T10:59:36.613Z,44.42
2022-11-26T11:02:33.732Z,46.45
2022-11-26T11:05:16.575Z,39.08
2022-11-26T11:07:57.795Z,42.38
2022-11-26T11:10:39.566Z,36.90
2022-11-26T11:13:20.638Z,45.90
2022-11-26T11:16:08.613Z,42.53
2022-11-26T11:18:57.713Z,39.28
2022-11-26T11:21:48.287Z,34.28
2022-11-26T11:24:29.656Z,30.88
2022-11-26T11:27:28.589Z,31.80
2022-11-26T11:30:15.586Z,34.05
2022-11-26T11:33:21.581Z,35.42
2022-11-26T11:36:20.558Z,30.45
2022-11-26T11:39:09.547Z,29.95
2022-11-26T11:41:49.677Z,33.70
2022-11-26T11:44:54.560Z,35.08
2022-11-26T11:47:31.650Z,36.90
2022-11-26T11:50:24.591Z,41.72
2022-11-26T11:53:23.599Z,33.30
2022-11-26T11:56:30.550Z,34.17
2022-11-26T11:59:43.609Z,33.90
2022-11-26T12:02:27.481Z,31.70
2022-11-26T12:05:28.575Z,31.05
2022-11-26T12:08:12.507Z,29.38
2022-11-26T12:11:05.592Z,32.80
2022-11-26T12:13:52.588Z,31.42
2022-11-26T12:16:42.675Z,41.28
2022-11-26T12:22:53.591Z,36.60
2022-11-26T12:25:41.586Z,26.45
2022-11-26T12:28:29.663Z,32.28
2022-11-26T12:31:20.607Z,28.17
2022-11-26T12:34:16.648Z,28.48
2022-11-26T12:37:00.564Z,30.67
2022-11-26T12:40:00.583Z,29.55
2022-11-26T12:42:47.721Z,28.98
2022-11-26T12:45:41.642Z,29.55
2022-11-26T12:48:35.587Z,24.38
2022-11-26T12:51:23.713Z,31.05
2022-11-26T12:54:22.589Z,26.35
2022-11-26T12:57:05.651Z,26.85
2022-11-26T13:00:01.610Z,25.70
2022-11-26T13:02:50.692Z,27.90
2022-11-26T13:05:51.702Z,27.63
2022-11-26T13:08:38.651Z,30.17
2022-11-26T13:11:18.574Z,37.15
2022-11-26T13:14:15.609Z,28.80
2022-11-26T13:16:55.627Z,26.17
2022-11-26T13:19:43.837Z,31.27
2022-11-26T13:22:30.592Z,34.15
2022-11-26T13:25:36.600Z,32.13
2022-11-26T13:28:31.588Z,31.20
2022-11-26T13:31:20.780Z,32.78
2022-11-26T13:34:04.597Z,30.63
2022-11-26T13:37:04.595Z,30.23
2022-11-26T13:39:53.532Z,25.75
2022-11-26T13:42:53.678Z,23.48
2022-11-26T13:45:51.685Z,26.70
2022-11-26T13:48:41.592Z,24.75
2022-11-26T13:51:33.974Z,26.38
2022-11-26T13:54:21.616Z,28.70
2022-11-26T13:57:08.618Z,26.88
2022-11-26T14:00:00.593Z,31.25
2022-11-26T14:02:41.674Z,33.78
2022-11-26T14:05:30.599Z,74.22
2022-11-26T14:08:23.618Z,74.53
2022-11-26T14:11:11.648Z,105.43
2022-11-26T14:13:59.616Z,75.18
2022-11-26T14:17:07.630Z,70.38
2022-11-26T14:19:41.535Z,95.85
2022-11-26T14:22:34.594Z,80.18
2022-11-26T14:25:16.618Z,59.83
2022-11-26T14:28:09.593Z,54.78
2022-11-26T14:30:43.611Z,82.22
2022-11-26T14:33:32.599Z,52.72
2022-11-26T14:36:19.717Z,50.65
2022-11-26T14:39:11.586Z,54.92
2022-11-26T14:42:00.339Z,49.47
2022-11-26T14:44:58.578Z,56.03
2022-11-26T14:47:46.619Z,64.78
2022-11-26T14:50:22.686Z,59.78
2022-11-26T14:53:13.657Z,54.97
2022-11-26T14:55:54.594Z,54.72
2022-11-26T14:58:44.610Z,56.55
2022-11-26T15:01:38.613Z,56.75
2022-11-26T15:04:36.866Z,57.88
2022-11-26T15:07:10.718Z,56.38
2022-11-26T15:10:07.674Z,51.55
2022-11-26T15:12:42.679Z,43.42
2022-11-26T15:15:31.720Z,46.38
2022-11-26T15:18:10.691Z,40.15
2022-11-26T15:20:59.614Z,41.85
2022-11-26T15:23:42.670Z,38.25
2022-11-26T15:26:31.611Z,34.15
2022-11-26T15:29:12.993Z,35.60
2022-11-26T15:32:06.671Z,37.15
2022-11-26T15:34:54.622Z,41.13
2022-11-26T15:37:28.676Z,40.90
2022-11-26T15:40:31.603Z,39.10
2022-11-26T15:43:12.677Z,35.33
2022-11-26T15:45:52.675Z,43.28
2022-11-26T15:48:51.715Z,36.58
2022-11-26T15:51:41.639Z,68.93
2022-11-26T15:55:10.946Z,51.08
2022-11-26T15:57:45.625Z,57.17
2022-11-26T16:00:53.624Z,47.40
2022-11-26T16:03:40.620Z,59.33
2022-11-26T16:06:48.621Z,60.38
2022-11-26T16:09:28.137Z,81.90
2022-11-26T16:12:15.624Z,58.55
2022-11-26T16:14:49.554Z,83.45
2022-11-26T16:17:37.616Z,108.65
2022-11-26T16:20:22.960Z,72.18
2022-11-26T16:23:13.689Z,49.88
2022-11-26T16:26:13.690Z,48.40
2022-11-26T16:29:01.669Z,54.25
2022-11-26T16:31:35.612Z,58.72
2022-11-26T16:34:23.759Z,46.47
2022-11-26T16:37:22.072Z,43.70
2022-11-26T16:40:16.701Z,39.95
2022-11-26T16:43:10.650Z,45.40
2022-11-26T16:46:01.703Z,46.53
2022-11-26T16:48:42.730Z,66.90
2022-11-26T16:51:30.674Z,70.82
2022-11-26T16:54:04.743Z,163.32
2022-11-26T16:56:53.376Z,76.13
2022-11-26T16:59:39.950Z,143.70
2022-11-26T17:02:28.755Z,59.83
2022-11-26T17:05:02.734Z,52.40
2022-11-26T17:07:54.772Z,56.90
2022-11-26T17:10:29.928Z,65.13
2022-11-26T17:13:16.688Z,82.35
2022-11-26T17:15:57.691Z,79.90
2022-11-26T17:18:38.725Z,71.60
2022-11-26T17:21:26.695Z,86.57
2022-11-26T17:24:00.627Z,82.82
2022-11-26T17:26:48.678Z,89.35
2022-11-26T17:29:22.591Z,85.03
2022-11-26T17:32:11.697Z,78.63
2022-11-26T17:34:52.692Z,84.55
2022-11-26T17:37:36.151Z,78.60
2022-11-26T17:40:24.687Z,76.20
2022-11-26T17:43:12.670Z,97.80
2022-11-26T17:45:46.688Z,123.07
2022-11-26T17:48:34.672Z,115.20
2022-11-26T17:51:10.012Z,115.38
2022-11-26T17:53:57.686Z,121.40
2022-11-26T17:56:31.618Z,110.50
2022-11-26T17:59:22.769Z,168.52
2022-11-26T18:01:57.719Z,171.73
2022-11-26T18:04:45.710Z,128.38
2022-11-26T18:07:26.859Z,106.28
2022-11-26T18:10:07.703Z,80.10
2022-11-26T18:12:48.683Z,76.85
2022-11-26T18:15:36.680Z,63.22
2022-11-26T18:18:23.692Z,60.00
2022-11-26T18:21:04.733Z,53.70
2022-11-26T18:23:45.735Z,62.33
2022-11-26T18:26:28.251Z,42.65
2022-11-26T18:29:09.668Z,42.60
2022-11-26T18:31:50.858Z,51.10
2022-11-26T18:34:31.684Z,50.17
2022-11-26T18:37:19.708Z,42.38
2022-11-26T18:39:59.708Z,50.22
2022-11-26T18:42:40.743Z,54.28
2022-11-26T18:45:22.691Z,50.78
2022-11-26T18:48:10.726Z,50.20
2022-11-26T18:50:51.799Z,49.35
2022-11-26T18:53:39.681Z,61.30
2022-11-26T18:56:25.730Z,57.33
2022-11-26T18:59:06.750Z,61.08
2022-11-26T19:01:46.774Z,59.50
2022-11-26T19:04:27.757Z,61.22
2022-11-26T19:07:08.687Z,68.53
2022-11-26T19:09:56.693Z,59.90
2022-11-26T19:12:30.667Z,73.55
2022-11-26T19:15:18.711Z,73.30
2022-11-26T19:17:52.814Z,69.60
2022-11-26T19:20:40.663Z,55.97
2022-11-26T19:23:14.675Z,47.05
2022-11-26T19:26:02.684Z,50.42
2022-11-26T19:28:57.689Z,62.83
2022-11-26T19:31:46.703Z,67.55
2022-11-26T19:34:21.772Z,73.50
2022-11-26T19:37:08.696Z,72.15
2022-11-26T19:39:49.680Z,71.45
2022-11-26T19:42:43.693Z,126.22
2022-11-26T19:45:31.694Z,88.40
2022-11-26T19:48:05.793Z,76.05
2022-11-26T19:51:00.699Z,75.25
2022-11-26T19:53:41.689Z,81.72
2022-11-26T19:56:34.720Z,72.03
2022-11-26T19:59:22.700Z,73.70
2022-11-26T20:01:56.786Z,86.97
2022-11-26T20:04:44.947Z,77.32
2022-11-26T20:07:19.673Z,85.82
2022-11-26T20:10:07.735Z,80.15
2022-11-26T20:12:41.649Z,97.28
2022-11-26T20:15:29.702Z,72.28
2022-11-26T20:18:09.702Z,82.70
2022-11-26T20:20:50.770Z,77.93
2022-11-26T20:23:30.729Z,75.45
2022-11-26T20:26:11.752Z,74.63
2022-11-26T20:28:52.712Z,82.63
2022-11-26T20:31:33.835Z,65.45
2022-11-26T20:34:13.708Z,46.75
2022-11-26T20:36:54.761Z,46.25
2022-11-26T20:39:36.780Z,55.95
2022-11-26T20:42:17.754Z,55.38
2022-11-26T20:44:57.718Z,49.17
2022-11-26T20:47:45.713Z,46.72
2022-11-26T20:50:25.715Z,54.70
2022-11-26T20:53:06.836Z,42.42
2022-11-26T20:55:46.707Z,44.53
2022-11-26T20:58:27.792Z,53.53
2022-11-26T21:01:08.751Z,42.42
2022-11-26T21:03:56.739Z,45.05
2022-11-26T21:06:41.704Z,51.88
2022-11-26T21:09:22.766Z,52.03
2022-11-26T21:12:03.719Z,46.65
2022-11-26T21:14:44.825Z,44.08
2022-11-26T21:17:24.833Z,55.83
2022-11-26T21:20:06.270Z,53.53
2022-11-26T21:22:47.696Z,52.72
2022-11-26T21:25:28.776Z,46.08
2022-11-26T21:28:10.729Z,45.58
2022-11-26T21:30:58.769Z,47.78
2022-11-26T21:33:33.807Z,48.20
2022-11-26T21:36:21.746Z,53.05
2022-11-26T21:39:01.725Z,47.80
2022-11-26T21:41:49.703Z,42.88
2022-11-26T21:44:36.860Z,61.80
2022-11-26T21:47:10.795Z,67.32
2022-11-26T21:49:57.705Z,47.15
2022-11-26T21:52:38.785Z,51.80
2022-11-26T21:55:32.693Z,65.30
2022-11-26T21:58:19.719Z,82.65
2022-11-26T22:00:53.905Z,102.95
2022-11-26T22:03:56.834Z,56.10
2022-11-26T22:06:50.693Z,63.80
2022-11-26T22:09:38.861Z,48.78
2022-11-26T22:12:20.723Z,74.93
2022-11-26T22:15:14.695Z,45.25
2022-11-26T22:18:01.741Z,53.88
2022-11-26T22:20:42.745Z,43.78
2022-11-26T22:23:36.691Z,49.70
2022-11-26T22:26:24.732Z,42.08
2022-11-26T22:29:12.736Z,32.72
2022-11-26T22:31:54.762Z,36.28
2022-11-26T22:34:42.723Z,38.28
2022-11-26T22:37:16.662Z,45.42
2022-11-26T22:40:04.710Z,38.55
2022-11-26T22:42:40.994Z,37.50
2022-11-26T22:45:28.735Z,39.47
2022-11-26T22:48:17.727Z,35.53
2022-11-26T22:51:05.738Z,37.22
2022-11-26T22:54:01.739Z,43.53
2022-11-26T22:56:44.784Z,44.40
2022-11-26T22:59:33.753Z,43.03
2022-11-26T23:02:07.781Z,30.45
2022-11-26T23:04:54.736Z,29.33
2022-11-26T23:07:28.886Z,30.67
2022-11-26T23:10:16.742Z,34.15
2022-11-26T23:12:57.706Z,29.95
2022-11-26T23:15:56.734Z,32.78
2022-11-26T23:18:44.685Z,29.70
2022-11-26T23:21:22.784Z,30.60
2022-11-26T23:24:09.727Z,37.42
2022-11-26T23:26:44.974Z,37.20
2022-11-26T23:29:31.724Z,45.60
2022-11-26T23:32:05.806Z,68.72
2022-11-26T23:34:54.710Z,61.47
2022-11-26T23:37:35.773Z,56.00
2022-11-26T23:40:16.729Z,47.67
2022-11-26T23:43:08.448Z,33.20
2022-11-26T23:45:48.765Z,32.42
2022-11-26T23:48:30.036Z,48.28
2022-11-26T23:51:15.735Z,36.05
2022-11-26T23:53:56.803Z,34.55
2022-11-26T23:56:38.729Z,36.70
2022-11-26T23:59:19.858Z,27.58
